Terminal Aerodrome Forecast
Issued by NWS Omaha/Valley, NE

Home | Current Version | Previous Version | Text Only | Print | Product List | Glossary On
Versions: 1 2 3 4 5 6 7 8 9 10 11 12 13 14 15 16
000
FTUS43 KOAX 190520
TAFOFK
TAF
KOFK 190520Z 1906/2006 16017G25KT P6SM SCT250
     FM190800 17015KT P6SM SCT250 WS020/21041KT
     FM191500 20013KT P6SM SCT040 SCT250
     FM192000 22008KT P6SM BKN050
     FM200100 VRB04KT P6SM BKN040=

USA.gov is the U.S. government's official web portal to all federal, state and local government web resources and services.